Kanawha Falls, West Virginia
Current Conditions -  °F | °C
As of 2:51 PM on Friday 21 Nov 2014 (Local Time) from KBKW Reporting Station
Clear Clear  
Wind Chill: 25°   Ceiling: Unl
Heat Index: 33°   Visibility: 10mi
Dew Point:   Wind: 10mph
Humidity: 34%   Direction: 270°W
Pressure: 30.39"   Gusts: NA
Location:  38.14°N, 81.21°W
Report Text: KBKW 211951Z AUTO 27009KT 10SM CLR 01/M14 A3039 RMK AO2 SLP326 T00061139
Loading
Personal Weather Stations






























Interactive Weather Map New forecast layout! Learn more

10-Day Weather Forecast

Advertisements
Track Severe Weather on mobile